Time;durP1;ratioP1;P1;durP2;ratioP2;P2;SDS_P1;SDS_P2;PMS_P1;PMS_P2;Temp;Humidity;BMP_temperature;BMP_pressure;BME280_temperature;BME280_humidity;BME280_pressure;Samples;Min_cycle;Max_cycle;Signal;HPM_P1;HPM_P2
2022/10/24 00:02:22;;;;;;;2.60;1.37;;;22.90;49.80;;;;;;5030876;28;20189;-52
2022/10/24 00:04:48;;;;;;;5.80;1.60;;;23.00;49.70;;;;;;5029745;28;20203;-51
2022/10/24 00:07:14;;;;;;;1.97;1.23;;;23.10;49.50;;;;;;5030627;28;20255;-52
2022/10/24 00:09:39;;;;;;;3.27;1.17;;;23.20;49.10;;;;;;5030907;28;20197;-51
2022/10/24 00:12:06;;;;;;;5.30;1.57;;;23.20;49.20;;;;;;5030672;28;20284;-48
2022/10/24 00:14:33;;;;;;;4.00;1.30;;;23.20;49.10;;;;;;5032734;28;20193;-49
2022/10/24 00:16:59;;;;;;;2.97;1.00;;;23.20;49.10;;;;;;5036229;28;20478;-52
2022/10/24 00:19:25;;;;;;;3.47;1.63;;;23.20;49.30;;;;;;5030856;28;20479;-50
2022/10/24 00:21:50;;;;;;;5.40;1.30;;;23.30;49.30;;;;;;5032115;28;20197;-53
2022/10/24 00:24:16;;;;;;;5.63;1.60;;;23.40;49.10;;;;;;5035329;28;20197;-54
2022/10/24 00:26:42;;;;;;;6.43;1.70;;;23.30;48.90;;;;;;5034675;28;20292;-53
2022/10/24 00:29:08;;;;;;;4.03;1.60;;;23.40;48.90;;;;;;5034913;28;20201;-52
2022/10/24 00:31:34;;;;;;;3.97;1.60;;;23.40;48.90;;;;;;5033197;28;20260;-53
2022/10/24 00:33:59;;;;;;;5.57;1.47;;;23.50;48.80;;;;;;5035195;28;20193;-51
2022/10/24 00:36:26;;;;;;;4.90;1.70;;;23.60;48.70;;;;;;5035196;28;20513;-54
2022/10/24 00:38:52;;;;;;;4.03;1.40;;;23.60;48.80;;;;;;5043114;28;20630;-53
2022/10/24 00:41:24;;;;;;;3.50;1.67;;;23.70;49.00;;;;;;5039823;28;20423;-50
2022/10/24 00:43:50;;;;;;;4.80;1.50;;;23.60;49.00;;;;;;5034340;28;20283;-53
2022/10/24 00:46:18;;;;;;;5.50;1.80;;;23.30;49.50;;;;;;5035206;28;20522;-51
2022/10/24 00:48:47;;;;;;;4.10;1.57;;;23.30;49.70;;;;;;5034560;28;20412;-53
2022/10/24 00:51:25;;;;;;;1.50;1.10;;;23.40;49.60;;;;;;5034470;28;21048;-53
2022/10/24 00:53:56;;;;;;;5.30;1.40;;;23.40;49.50;;;;;;5034052;28;20446;-51
2022/10/24 00:56:26;;;;;;;8.50;1.60;;;23.40;49.40;;;;;;5034875;28;20474;-52
2022/10/24 00:58:55;;;;;;;6.07;1.20;;;23.40;49.30;;;;;;5032709;28;20507;-52
2022/10/24 01:01:20;;;;;;;3.97;1.50;;;23.50;49.30;;;;;;5034248;28;20436;-51
2022/10/24 01:03:46;;;;;;;2.57;1.30;;;23.50;49.20;;;;;;5033967;28;20776;-51
2022/10/24 01:06:33;;;;;;;3.33;1.20;;;23.40;49.20;;;;;;5034468;28;20665;-51
2022/10/24 01:09:25;;;;;;;3.03;1.37;;;23.40;49.40;;;;;;5034041;28;20200;-52
2022/10/24 01:12:15;;;;;;;3.90;1.70;;;23.40;49.40;;;;;;5033833;28;20489;-50
2022/10/24 01:14:59;;;;;;;8.90;1.37;;;23.40;49.50;;;;;;5042972;28;20427;-51
2022/10/24 01:17:58;;;;;;;4.47;1.90;;;23.30;49.50;;;;;;5035844;28;20514;-53
2022/10/24 01:20:36;;;;;;;4.63;1.70;;;23.30;49.60;;;;;;5034022;28;20440;-49
2022/10/24 01:23:40;;;;;;;5.30;1.40;;;23.10;49.60;;;;;;5033854;28;20514;-52
2022/10/24 01:26:46;;;;;;;2.97;1.73;;;23.10;50.00;;;;;;5042109;28;20906;-49
2022/10/24 01:29:36;;;;;;;5.30;1.80;;;23.10;50.00;;;;;;5053509;28;20435;-53
2022/10/24 01:32:08;;;;;;;5.80;2.00;;;23.00;50.10;;;;;;5052895;28;20427;-49
2022/10/24 01:34:59;;;;;;;3.70;1.70;;;22.90;50.50;;;;;;5054139;28;20513;-49
2022/10/24 01:37:34;;;;;;;2.77;1.60;;;22.70;51.10;;;;;;5039061;28;20616;-51
2022/10/24 01:40:12;;;;;;;4.00;1.67;;;22.40;52.00;;;;;;5049091;28;20539;-53
2022/10/24 01:42:40;;;;;;;6.67;1.87;;;22.50;52.00;;;;;;5033095;28;20447;-53
2022/10/24 01:45:10;;;;;;;4.00;1.90;;;22.60;51.90;;;;;;5033694;28;20557;-49
2022/10/24 01:47:42;;;;;;;7.17;1.57;;;22.50;52.10;;;;;;5033266;28;20430;-52
2022/10/24 01:50:12;;;;;;;4.07;1.57;;;22.40;52.50;;;;;;5040446;28;20424;-49
2022/10/24 01:52:40;;;;;;;7.30;1.70;;;22.30;53.00;;;;;;5051436;28;20456;-53
2022/10/24 01:55:07;;;;;;;7.73;1.70;;;22.20;53.40;;;;;;5053577;28;20423;-52
2022/10/24 01:57:33;;;;;;;2.43;1.70;;;22.30;53.40;;;;;;5052915;28;20427;-52
2022/10/24 02:00:00;;;;;;;3.43;1.43;;;22.20;53.30;;;;;;5052694;28;20924;-50
2022/10/24 02:02:36;;;;;;;8.30;1.70;;;22.10;53.80;;;;;;5052786;28;20438;-52
2022/10/24 02:05:15;;;;;;;5.70;1.70;;;22.10;53.80;;;;;;5053333;28;20460;-50
2022/10/24 02:07:44;;;;;;;3.33;1.40;;;22.00;53.90;;;;;;5052992;28;20450;-49
2022/10/24 02:10:24;;;;;;;4.10;1.90;;;21.90;54.10;;;;;;5052610;28;20423;-51
2022/10/24 02:12:58;;;;;;;6.20;1.50;;;21.90;54.40;;;;;;5052724;28;20434;-49
2022/10/24 02:15:27;;;;;;;3.97;1.30;;;21.70;54.80;;;;;;5052290;28;20833;-48
2022/10/24 02:17:55;;;;;;;4.13;1.47;;;21.60;55.30;;;;;;5031769;28;20908;-52
2022/10/24 02:20:27;;;;;;;4.63;1.80;;;21.60;55.50;;;;;;5032155;28;20874;-49
2022/10/24 02:23:04;;;;;;;6.30;2.00;;;21.70;55.40;;;;;;5032823;28;20908;-51
2022/10/24 02:25:33;;;;;;;4.30;1.73;;;21.70;55.40;;;;;;5032973;28;20499;-48
2022/10/24 02:28:21;;;;;;;6.10;2.20;;;21.80;55.30;;;;;;5032507;28;20418;-50
2022/10/24 02:31:11;;;;;;;9.80;2.00;;;21.70;55.30;;;;;;5039768;28;20435;-52
2022/10/24 02:33:39;;;;;;;4.37;1.90;;;21.60;55.80;;;;;;5052160;28;20942;-49
2022/10/24 02:36:07;;;;;;;6.40;1.70;;;21.60;56.00;;;;;;5052543;28;20431;-48
2022/10/24 02:38:37;;;;;;;6.00;2.57;;;21.70;55.70;;;;;;5051915;28;20467;-51
2022/10/24 02:41:09;;;;;;;3.80;1.77;;;21.70;55.80;;;;;;5039195;28;20436;-48
2022/10/24 02:43:35;;;;;;;3.87;1.60;;;21.70;55.70;;;;;;5038594;28;20423;-50
2022/10/24 02:46:02;;;;;;;4.40;1.60;;;21.60;55.80;;;;;;5050386;28;20435;-50
2022/10/24 02:48:34;;;;;;;4.10;1.87;;;21.50;56.10;;;;;;5051899;28;20435;-51
2022/10/24 02:51:01;;;;;;;6.90;1.90;;;21.60;56.10;;;;;;5052103;28;20430;-49
2022/10/24 02:53:27;;;;;;;5.20;1.83;;;21.60;56.10;;;;;;5051986;28;20423;-48
2022/10/24 02:55:53;;;;;;;6.00;1.97;;;21.50;56.20;;;;;;5052397;28;20458;-48
2022/10/24 02:58:18;;;;;;;8.70;2.10;;;21.50;56.10;;;;;;5051455;28;20514;-50
2022/10/24 03:00:44;;;;;;;4.87;2.00;;;21.60;56.10;;;;;;5051900;28;20855;-48
2022/10/24 03:03:10;;;;;;;8.57;2.37;;;21.70;56.20;;;;;;5051588;28;20194;-49
2022/10/24 03:05:35;;;;;;;5.10;2.10;;;21.60;56.40;;;;;;5051990;28;20207;-51
2022/10/24 03:08:01;;;;;;;7.73;2.00;;;21.70;56.50;;;;;;5051610;28;20306;-52
2022/10/24 03:10:26;;;;;;;4.40;1.80;;;21.60;56.70;;;;;;5051805;28;20276;-49
2022/10/24 03:12:52;;;;;;;9.03;2.60;;;21.80;56.70;;;;;;5050028;28;20185;-49
2022/10/24 03:15:18;;;;;;;6.37;2.40;;;21.70;57.00;;;;;;5051506;28;20188;-49
2022/10/24 03:17:46;;;;;;;5.83;2.80;;;21.80;56.70;;;;;;5032000;28;20233;-49
2022/10/24 03:20:11;;;;;;;7.30;2.23;;;21.80;56.80;;;;;;5031558;28;20327;-51
2022/10/24 03:22:37;;;;;;;9.93;2.90;;;21.80;56.90;;;;;;5031401;28;20518;-49
2022/10/24 03:25:05;;;;;;;5.83;2.10;;;21.80;57.40;;;;;;5031859;28;20200;-49
2022/10/24 03:27:32;;;;;;;11.00;2.43;;;21.70;57.70;;;;;;5031273;28;20215;-49
2022/10/24 03:29:58;;;;;;;7.33;2.50;;;21.80;57.60;;;;;;5031284;28;20440;-49
2022/10/24 03:32:24;;;;;;;7.60;2.73;;;21.70;57.70;;;;;;5031361;28;20435;-52
2022/10/24 03:34:49;;;;;;;8.73;2.77;;;21.80;57.80;;;;;;5031675;28;20193;-52
2022/10/24 03:37:15;;;;;;;4.30;1.90;;;21.80;57.80;;;;;;5030910;28;20318;-53
2022/10/24 03:39:41;;;;;;;9.37;2.60;;;21.80;57.70;;;;;;5043377;28;20220;-53
2022/10/24 03:42:06;;;;;;;4.73;1.90;;;21.80;57.90;;;;;;5031033;28;20280;-53
2022/10/24 03:44:32;;;;;;;6.13;3.10;;;21.80;57.90;;;;;;5031294;28;20198;-52
2022/10/24 03:46:57;;;;;;;11.87;2.80;;;21.70;58.20;;;;;;5031223;28;20223;-50
2022/10/24 03:49:23;;;;;;;6.47;2.27;;;21.60;58.40;;;;;;5031553;28;20194;-51
2022/10/24 03:51:48;;;;;;;4.43;2.00;;;21.70;58.40;;;;;;5031142;28;20620;-54
2022/10/24 03:54:14;;;;;;;6.23;2.60;;;21.80;58.20;;;;;;5031186;28;20219;-50
2022/10/24 03:56:43;;;;;;;6.50;2.23;;;21.70;58.20;;;;;;5030692;28;20217;-52
2022/10/24 03:59:09;;;;;;;5.67;2.23;;;21.70;58.30;;;;;;5030865;28;20236;-53
2022/10/24 04:01:35;;;;;;;10.60;2.83;;;21.50;58.70;;;;;;5030770;28;20424;-53
2022/10/24 04:04:01;;;;;;;7.53;2.73;;;21.40;59.20;;;;;;5031087;28;20482;-52
2022/10/24 04:06:27;;;;;;;7.30;2.37;;;21.30;59.40;;;;;;5029917;28;20197;-50
2022/10/24 04:08:52;;;;;;;5.07;2.30;;;21.10;59.70;;;;;;5030374;28;20842;-49
2022/10/24 04:11:18;;;;;;;5.63;2.30;;;21.10;59.60;;;;;;5031128;28;20200;-51
2022/10/24 04:13:43;;;;;;;5.30;2.10;;;21.00;60.40;;;;;;5030415;28;20335;-53
2022/10/24 04:16:09;;;;;;;9.10;3.00;;;20.80;60.10;;;;;;5038157;28;20193;-52
2022/10/24 04:18:34;;;;;;;6.53;2.23;;;20.80;60.40;;;;;;5028275;28;20715;-50
2022/10/24 04:21:00;;;;;;;7.93;1.97;;;20.60;60.90;;;;;;5030768;28;20236;-48
2022/10/24 04:23:26;;;;;;;10.70;2.93;;;20.40;61.70;;;;;;5030201;28;20208;-51
2022/10/24 04:25:52;;;;;;;5.90;1.73;;;20.30;62.10;;;;;;5031241;28;20200;-51
2022/10/24 04:28:17;;;;;;;6.57;2.50;;;20.30;62.20;;;;;;5030458;28;20193;-51
2022/10/24 04:30:43;;;;;;;7.63;2.13;;;20.20;62.30;;;;;;5030740;28;20427;-49
2022/10/24 04:33:09;;;;;;;7.10;2.00;;;20.20;62.30;;;;;;5028657;28;20272;-52
2022/10/24 04:35:34;;;;;;;9.37;2.37;;;20.30;62.20;;;;;;5030986;28;20296;-52
2022/10/24 04:38:00;;;;;;;8.00;2.63;;;20.30;62.20;;;;;;5030993;28;20689;-53
2022/10/24 04:40:25;;;;;;;5.60;2.17;;;20.30;62.10;;;;;;5050419;28;20210;-49
2022/10/24 04:42:51;;;;;;;6.83;2.40;;;20.30;61.90;;;;;;5050514;28;20200;-50
2022/10/24 04:45:17;;;;;;;6.73;2.67;;;20.30;62.00;;;;;;5050792;28;20230;-49
2022/10/24 04:47:42;;;;;;;7.60;2.37;;;20.40;62.10;;;;;;5050489;28;20193;-52
2022/10/24 04:50:08;;;;;;;4.90;2.57;;;20.50;61.80;;;;;;5050601;28;20415;-50
2022/10/24 04:52:34;;;;;;;8.83;2.60;;;20.60;61.50;;;;;;5050184;28;20641;-49
2022/10/24 04:54:59;;;;;;;7.80;2.90;;;20.60;61.60;;;;;;5050640;28;20200;-49
2022/10/24 04:57:25;;;;;;;5.90;2.73;;;20.80;61.10;;;;;;5050316;28;20536;-51
2022/10/24 04:59:50;;;;;;;5.40;2.70;;;20.80;61.60;;;;;;5048968;28;20252;-52
2022/10/24 05:02:16;;;;;;;6.87;3.07;;;20.70;61.30;;;;;;5050025;28;20548;-48
2022/10/24 05:04:42;;;;;;;10.33;3.10;;;20.60;60.90;;;;;;5050706;28;20196;-52
2022/10/24 05:07:07;;;;;;;8.40;2.80;;;20.40;61.80;;;;;;5050461;28;20189;-53
2022/10/24 05:09:33;;;;;;;6.40;2.60;;;20.30;62.10;;;;;;5054087;28;20196;-52
2022/10/24 05:11:59;;;;;;;3.33;2.07;;;20.50;61.90;;;;;;5053581;28;20209;-50
2022/10/24 05:14:24;;;;;;;8.00;2.03;;;20.90;60.80;;;;;;5054370;28;20551;-52
2022/10/24 05:16:50;;;;;;;13.97;3.03;;;21.10;59.90;;;;;;5040920;28;20201;-52
2022/10/24 05:19:16;;;;;;;9.90;2.67;;;21.30;59.40;;;;;;5033827;28;20279;-52
2022/10/24 05:21:42;;;;;;;7.07;2.37;;;21.40;59.00;;;;;;5033412;28;20197;-52
2022/10/24 05:24:08;;;;;;;8.03;2.20;;;21.50;58.70;;;;;;5033481;28;20435;-52
2022/10/24 05:26:34;;;;;;;7.20;2.73;;;21.70;58.90;;;;;;5031679;28;20420;-49
2022/10/24 05:28:59;;;;;;;6.40;2.63;;;21.80;58.10;;;;;;5033121;28;20919;-51
2022/10/24 05:31:25;;;;;;;5.80;1.80;;;21.80;57.90;;;;;;5033929;28;20198;-53
2022/10/24 05:33:51;;;;;;;6.30;2.37;;;21.70;58.20;;;;;;5033766;28;20672;-52
2022/10/24 05:36:17;;;;;;;3.37;1.93;;;21.70;58.40;;;;;;5034048;28;20189;-51
2022/10/24 05:38:42;;;;;;;8.80;2.70;;;21.50;58.50;;;;;;5039841;28;20251;-49
2022/10/24 05:41:08;;;;;;;4.53;2.40;;;21.50;58.60;;;;;;5040258;28;20236;-53
2022/10/24 05:43:34;;;;;;;59.20;3.87;;;21.50;58.50;;;;;;5040116;28;20188;-50
2022/10/24 05:45:59;;;;;;;3.30;2.07;;;21.60;58.30;;;;;;5053950;28;20263;-52
2022/10/24 05:48:25;;;;;;;6.77;2.90;;;21.50;58.50;;;;;;5046879;28;20205;-53
2022/10/24 05:50:56;;;;;;;5.00;2.50;;;21.40;59.10;;;;;;5052430;28;20195;-52
2022/10/24 05:53:21;;;;;;;7.10;2.00;;;21.30;59.10;;;;;;5044614;28;20204;-50
2022/10/24 05:55:47;;;;;;;4.93;2.10;;;21.30;59.30;;;;;;5033377;28;20900;-50
2022/10/24 05:58:12;;;;;;;6.97;2.50;;;21.20;59.30;;;;;;5032788;28;20201;-52
2022/10/24 06:00:38;;;;;;;6.27;2.63;;;21.10;59.40;;;;;;5033192;28;20225;-50
2022/10/24 06:03:03;;;;;;;4.80;1.97;;;21.00;59.40;;;;;;5032815;28;20307;-53
2022/10/24 06:05:29;;;;;;;7.77;2.17;;;21.20;59.20;;;;;;5033263;28;20189;-53
2022/10/24 06:07:54;;;;;;;5.53;2.30;;;21.30;59.00;;;;;;5032840;28;20276;-52
2022/10/24 06:10:20;;;;;;;4.70;3.03;;;21.40;58.70;;;;;;5032904;28;20189;-49
2022/10/24 06:12:52;;;;;;;4.47;2.43;;;21.60;58.30;;;;;;5032559;28;20197;-53
2022/10/24 06:15:17;;;;;;;5.57;2.00;;;21.60;58.00;;;;;;5040106;28;20231;-53
2022/10/24 06:17:43;;;;;;;10.40;2.40;;;21.50;57.80;;;;;;5033165;28;20428;-53
2022/10/24 06:20:10;;;;;;;7.00;2.60;;;21.40;58.30;;;;;;5013623;28;20626;-53
2022/10/24 06:22:38;;;;;;;15.33;3.23;;;21.40;60.10;;;;;;5033409;28;20668;-53
2022/10/24 06:25:04;;;;;;;7.07;2.23;;;21.10;60.30;;;;;;5015418;28;20515;-53
2022/10/24 06:27:30;;;;;;;9.07;2.70;;;20.70;60.60;;;;;;5032744;28;20417;-53
2022/10/24 06:29:57;;;;;;;8.73;2.33;;;20.80;63.90;;;;;;5015083;28;20439;-52
2022/10/24 06:32:22;;;;;;;4.10;2.50;;;21.00;63.90;;;;;;5015328;28;20431;-52
2022/10/24 06:34:49;;;;;;;4.30;2.00;;;21.00;63.10;;;;;;5033184;28;20431;-50
2022/10/24 06:37:14;;;;;;;5.20;2.00;;;21.20;62.80;;;;;;5032554;28;20703;-51
2022/10/24 06:39:40;;;;;;;5.60;2.50;;;21.40;63.30;;;;;;5046910;28;20562;-51
2022/10/24 06:42:05;;;;;;;6.90;2.13;;;21.60;62.70;;;;;;5052182;28;20192;-52
2022/10/24 06:44:31;;;;;;;4.90;2.60;;;21.70;62.20;;;;;;5052642;28;20272;-53
2022/10/24 06:46:57;;;;;;;5.80;2.40;;;21.60;61.10;;;;;;5050490;28;20604;-50
2022/10/24 06:49:22;;;;;;;8.10;2.53;;;21.50;61.60;;;;;;5052039;28;20716;-53
2022/10/24 06:51:48;;;;;;;8.43;2.90;;;21.60;62.00;;;;;;5052167;28;20242;-51
2022/10/24 06:54:14;;;;;;;5.23;2.23;;;21.60;62.10;;;;;;5052580;28;20223;-50
2022/10/24 06:56:40;;;;;;;7.40;2.53;;;21.50;62.30;;;;;;5051856;28;20694;-53
2022/10/24 06:59:15;;;;;;;8.63;2.30;;;21.60;62.00;;;;;;5051550;28;20483;-49
2022/10/24 07:01:41;;;;;;;4.50;2.20;;;21.50;62.50;;;;;;5051885;28;20192;-50
2022/10/24 07:04:06;;;;;;;6.10;2.40;;;21.50;62.40;;;;;;5052344;28;20500;-50
2022/10/24 07:06:32;;;;;;;11.23;2.40;;;21.70;62.20;;;;;;5051883;28;20856;-51
2022/10/24 07:08:59;;;;;;;7.00;2.00;;;21.80;62.30;;;;;;5051816;28;20222;-51
2022/10/24 07:11:26;;;;;;;4.20;2.30;;;21.80;62.40;;;;;;5051939;28;20276;-52
2022/10/24 07:13:53;;;;;;;5.97;2.00;;;21.90;62.50;;;;;;5050284;28;20438;-49
2022/10/24 07:16:18;;;;;;;4.70;1.70;;;22.00;62.80;;;;;;5043025;28;20424;-52
2022/10/24 07:18:44;;;;;;;4.67;2.70;;;22.00;63.60;;;;;;5030712;28;20933;-52
2022/10/24 07:21:14;;;;;;;3.73;1.90;;;22.00;63.70;;;;;;5031994;28;20535;-52
2022/10/24 07:23:40;;;;;;;8.13;1.93;;;21.90;63.30;;;;;;5031274;28;20927;-52
2022/10/24 07:26:09;;;;;;;11.00;3.10;;;21.90;63.50;;;;;;5032005;28;20424;-53
2022/10/24 07:28:36;;;;;;;6.47;2.10;;;21.90;63.80;;;;;;5030544;28;20660;-50
2022/10/24 07:31:02;;;;;;;6.07;2.53;;;21.90;64.10;;;;;;5031405;28;20419;-49
2022/10/24 07:33:28;;;;;;;3.80;2.70;;;22.00;64.50;;;;;;5031230;28;20907;-49
2022/10/24 07:35:54;;;;;;;4.67;2.10;;;22.00;64.70;;;;;;5031788;28;20427;-51
2022/10/24 07:38:20;;;;;;;4.63;3.00;;;22.00;65.00;;;;;;5033476;28;20266;-53
2022/10/24 07:40:46;;;;;;;9.40;3.83;;;21.90;65.30;;;;;;5051247;28;20652;-52
2022/10/24 07:43:12;;;;;;;6.60;2.17;;;21.80;65.20;;;;;;5050873;28;20263;-49
2022/10/24 07:45:39;;;;;;;8.20;2.70;;;21.80;65.70;;;;;;5051570;28;20430;-51
2022/10/24 07:48:05;;;;;;;3.87;2.10;;;21.50;64.70;;;;;;5050866;28;20438;-51
2022/10/24 07:50:32;;;;;;;6.30;2.30;;;21.30;64.80;;;;;;5051029;28;20950;-51
2022/10/24 07:52:57;;;;;;;8.33;2.93;;;21.10;66.00;;;;;;5050456;28;20426;-51
2022/10/24 07:55:23;;;;;;;7.57;2.80;;;20.80;67.60;;;;;;5051544;28;20428;-52
2022/10/24 07:57:49;;;;;;;7.77;2.80;;;20.70;69.20;;;;;;5050578;28;20192;-49
2022/10/24 08:00:15;;;;;;;7.80;3.67;;;20.90;69.20;;;;;;5050583;28;20252;-51
2022/10/24 08:02:40;;;;;;;9.97;2.77;;;20.60;69.00;;;;;;5050594;28;20196;-50
2022/10/24 08:05:07;;;;;;;3.60;1.90;;;20.00;71.10;;;;;;5049974;28;20435;-52
2022/10/24 08:07:36;;;;;;;6.23;2.37;;;19.70;72.40;;;;;;5050643;28;20188;-51
2022/10/24 08:10:03;;;;;;;4.70;3.03;;;19.60;74.40;;;;;;5050960;28;20438;-51
2022/10/24 08:12:29;;;;;;;4.30;2.80;;;19.60;75.10;;;;;;5050273;28;20420;-52
2022/10/24 08:14:55;;;;;;;6.43;2.93;;;19.60;75.50;;;;;;5051175;28;20423;-53
2022/10/24 08:17:22;;;;;;;5.10;2.30;;;19.60;76.50;;;;;;5032949;28;20193;-49
2022/10/24 08:19:48;;;;;;;5.00;2.37;;;19.50;76.40;;;;;;5030468;28;20762;-51
2022/10/24 08:22:15;;;;;;;5.33;2.73;;;19.50;75.40;;;;;;5030639;28;20477;-53
2022/10/24 08:24:44;;;;;;;6.63;2.40;;;19.70;74.30;;;;;;5031170;28;20443;-52
2022/10/24 08:27:10;;;;;;;4.63;2.30;;;19.90;73.50;;;;;;5030534;28;20439;-51
2022/10/24 08:29:35;;;;;;;8.40;2.37;;;19.90;72.90;;;;;;5030688;28;20801;-52
2022/10/24 08:32:01;;;;;;;9.13;2.20;;;19.80;72.30;;;;;;5028502;28;20284;-51
2022/10/24 08:34:27;;;;;;;6.03;2.30;;;19.50;73.20;;;;;;5031107;28;20633;-51
2022/10/24 08:36:52;;;;;;;4.60;2.03;;;19.00;75.70;;;;;;5030427;28;20233;-49
2022/10/24 08:39:18;;;;;;;3.40;1.90;;;18.70;78.00;;;;;;5042598;28;20310;-49
2022/10/24 08:41:54;;;;;;;6.90;1.83;;;18.80;78.50;;;;;;5031963;28;20185;-50
2022/10/24 08:44:34;;;;;;;5.03;1.93;;;19.20;76.60;;;;;;5035115;28;20546;-50
2022/10/24 08:47:12;;;;;;;5.40;2.00;;;19.60;74.80;;;;;;5042654;28;20537;-51
2022/10/24 08:49:56;;;;;;;7.93;2.43;;;20.00;73.50;;;;;;5054437;28;20930;-52
2022/10/24 08:52:35;;;;;;;6.97;2.00;;;20.20;72.40;;;;;;5054239;28;20530;-49
2022/10/24 08:55:10;;;;;;;9.10;2.50;;;20.40;71.50;;;;;;5054928;28;20765;-50
2022/10/24 08:57:37;;;;;;;7.47;2.70;;;20.60;71.50;;;;;;5054267;28;20861;-50
2022/10/24 09:00:25;;;;;;;5.33;2.87;;;20.60;71.80;;;;;;5052847;28;20531;-50
2022/10/24 09:02:58;;;;;;;7.00;2.53;;;20.70;71.30;;;;;;5053987;28;20427;-51
2022/10/24 09:05:29;;;;;;;8.53;2.93;;;20.70;70.60;;;;;;5054884;28;20498;-52
2022/10/24 09:08:03;;;;;;;4.83;2.10;;;20.50;70.50;;;;;;5054038;28;20427;-51
2022/10/24 09:10:50;;;;;;;7.63;2.50;;;20.50;71.40;;;;;;5054169;28;20419;-49
2022/10/24 09:13:16;;;;;;;6.53;2.63;;;20.60;71.60;;;;;;5053595;28;20427;-51
2022/10/24 09:15:44;;;;;;;4.60;2.60;;;20.30;72.70;;;;;;5050330;28;20423;-52
2022/10/24 09:18:33;;;;;;;6.90;2.90;;;20.20;72.80;;;;;;5033738;28;20478;-53
2022/10/24 09:21:00;;;;;;;3.10;2.20;;;20.20;72.40;;;;;;5041833;28;20601;-53
2022/10/24 09:23:26;;;;;;;5.93;2.63;;;20.10;74.00;;;;;;5053487;28;20772;-51
2022/10/24 09:25:55;;;;;;;4.77;2.10;;;19.80;73.90;;;;;;5052870;28;20796;-50
2022/10/24 09:28:22;;;;;;;4.77;2.40;;;19.70;74.00;;;;;;5053181;28;20488;-51
2022/10/24 09:30:49;;;;;;;8.07;2.43;;;19.70;75.50;;;;;;5054118;28;20435;-50
2022/10/24 09:33:32;;;;;;;2.80;2.20;;;19.90;75.30;;;;;;5053123;28;20431;-50
2022/10/24 09:36:00;;;;;;;3.97;2.27;;;20.00;74.70;;;;;;5053848;28;20788;-51
2022/10/24 09:38:32;;;;;;;8.00;2.33;;;19.90;74.50;;;;;;5052630;28;20474;-52
2022/10/24 09:41:05;;;;;;;2.57;1.60;;;20.10;73.70;;;;;;5041929;28;20442;-53
2022/10/24 09:43:54;;;;;;;4.73;1.50;;;19.90;73.40;;;;;;5032980;28;20501;-52
2022/10/24 09:46:47;;;;;;;4.37;2.10;;;20.00;73.50;;;;;;5020512;28;20452;-50
2022/10/24 09:49:16;;;;;;;7.83;2.47;;;20.10;73.20;;;;;;5029935;28;20432;-54
2022/10/24 09:51:58;;;;;;;3.33;1.77;;;20.20;72.80;;;;;;5033102;28;20440;-53
2022/10/24 09:54:27;;;;;;;4.67;2.37;;;20.00;72.00;;;;;;5032966;28;20436;-54
2022/10/24 09:57:11;;;;;;;2.50;1.93;;;19.90;73.40;;;;;;5033291;28;20439;-53
2022/10/24 09:59:56;;;;;;;4.90;2.10;;;20.00;72.30;;;;;;5032982;28;20522;-54
2022/10/24 10:02:28;;;;;;;5.83;2.60;;;20.00;72.40;;;;;;5032977;28;20432;-53
2022/10/24 10:05:03;;;;;;;3.87;2.53;;;20.10;72.20;;;;;;5033869;28;20435;-53
2022/10/24 10:07:40;;;;;;;4.00;2.10;;;20.30;71.50;;;;;;5032493;28;20430;-53
2022/10/24 10:10:25;;;;;;;4.23;2.40;;;20.50;70.90;;;;;;5033053;28;20427;-52
2022/10/24 10:13:02;;;;;;;4.27;2.27;;;20.50;70.40;;;;;;5040457;28;20442;-53
2022/10/24 10:15:42;;;;;;;4.83;2.07;;;20.40;70.30;;;;;;5046711;28;20584;-53
2022/10/24 10:18:31;;;;;;;7.93;2.70;;;20.30;70.90;;;;;;5041318;28;20459;-52
2022/10/24 10:21:02;;;;;;;4.30;2.10;;;20.20;71.70;;;;;;5045866;28;20858;-50
2022/10/24 10:23:31;;;;;;;6.70;2.30;;;20.20;72.60;;;;;;5048305;28;20804;-53
2022/10/24 10:26:16;;;;;;;3.53;2.43;;;20.20;72.60;;;;;;5042893;28;21029;-50
2022/10/24 10:28:49;;;;;;;5.10;2.10;;;20.30;72.30;;;;;;5047269;28;20961;-53
2022/10/24 10:31:18;;;;;;;6.97;2.13;;;20.40;71.60;;;;;;5040399;28;20550;-52
2022/10/24 10:34:09;;;;;;;2.80;2.27;;;20.60;71.10;;;;;;5052262;28;20446;-53
2022/10/24 10:37:01;;;;;;;2.87;1.60;;;20.60;70.70;;;;;;5042671;28;20482;-53
2022/10/24 10:39:42;;;;;;;6.00;2.03;;;20.70;70.60;;;;;;5050556;28;20478;-53
2022/10/24 10:42:16;;;;;;;5.57;2.00;;;20.90;69.70;;;;;;5047433;28;20523;-50
2022/10/24 10:45:06;;;;;;;6.20;2.30;;;20.90;69.10;;;;;;5045202;28;21222;-53
2022/10/24 10:47:54;;;;;;;7.17;2.30;;;21.10;68.90;;;;;;5044193;28;20814;-50
2022/10/24 10:50:39;;;;;;;5.73;1.77;;;21.10;68.10;;;;;;5009829;28;20463;-53
2022/10/24 10:53:27;;;;;;;3.90;2.00;;;21.00;68.10;;;;;;5048140;28;20442;-50
2022/10/24 10:56:11;;;;;;;5.77;1.67;;;21.00;69.20;;;;;;5047076;28;20454;-53
2022/10/24 10:58:54;;;;;;;3.13;1.93;;;21.20;67.90;;;;;;5046502;28;20885;-53
2022/10/24 11:01:30;;;;;;;2.20;1.83;;;20.80;66.50;;;;;;5044829;28;20471;-51
2022/10/24 11:03:58;;;;;;;2.90;1.97;;;20.40;66.80;;;;;;5043919;28;20442;-52
2022/10/24 11:06:42;;;;;;;2.30;1.43;;;20.30;67.70;;;;;;5041288;28;20479;-50
2022/10/24 11:09:16;;;;;;;5.77;2.77;;;20.20;67.40;;;;;;5041292;28;20444;-53
2022/10/24 11:11:47;;;;;;;3.03;1.73;;;20.20;67.60;;;;;;5048408;28;20938;-52
2022/10/24 11:14:30;;;;;;;3.30;1.83;;;20.10;67.20;;;;;;5046968;28;20442;-52
2022/10/24 11:17:03;;;;;;;3.37;2.07;;;20.00;66.40;;;;;;5044092;28;20462;-51
2022/10/24 11:19:39;;;;;;;4.63;1.93;;;20.20;67.20;;;;;;5049034;28;20876;-51
2022/10/24 11:22:14;;;;;;;2.30;1.60;;;20.30;66.70;;;;;;5048341;28;20450;-53
2022/10/24 11:24:47;;;;;;;5.40;1.77;;;20.40;66.20;;;;;;5050390;28;20538;-53
2022/10/24 11:27:21;;;;;;;4.63;2.03;;;20.40;66.00;;;;;;5033782;28;20534;-54
2022/10/24 11:29:55;;;;;;;2.60;1.70;;;20.30;65.00;;;;;;5041651;28;21120;-52
2022/10/24 11:32:36;;;;;;;3.60;1.30;;;20.20;65.20;;;;;;5045179;28;20827;-52
2022/10/24 11:35:28;;;;;;;4.10;1.30;;;20.30;65.10;;;;;;5046909;28;20540;-50
2022/10/24 11:38:06;;;;;;;4.53;1.67;;;20.20;64.90;;;;;;5046162;28;20607;-53
2022/10/24 11:40:34;;;;;;;5.10;1.40;;;20.00;65.70;;;;;;5044749;28;20459;-52
2022/10/24 11:43:05;;;;;;;1.67;1.20;;;20.10;65.20;;;;;;5045435;28;20505;-53
2022/10/24 11:46:01;;;;;;;3.10;1.90;;;20.20;65.00;;;;;;5048648;28;20949;-53
2022/10/24 11:48:38;;;;;;;4.40;1.20;;;20.10;65.10;;;;;;5030449;28;20522;-50
2022/10/24 11:51:37;;;;;;;2.97;1.40;;;20.30;65.10;;;;;;5050019;28;20991;-52
2022/10/24 11:54:18;;;;;;;3.03;1.43;;;20.30;65.10;;;;;;5047120;28;20439;-50
2022/10/24 11:56:49;;;;;;;2.20;1.20;;;20.20;65.30;;;;;;5048850;28;20482;-50
2022/10/24 11:59:23;;;;;;;2.13;1.33;;;20.20;64.20;;;;;;5041988;28;20475;-53
2022/10/24 12:02:22;;;;;;;3.10;1.30;;;20.30;64.10;;;;;;5034777;28;20950;-52
2022/10/24 12:05:09;;;;;;;3.63;1.90;;;20.40;64.20;;;;;;5044463;28;20478;-53
2022/10/24 12:08:03;;;;;;;4.90;1.77;;;20.40;64.40;;;;;;5032600;28;20440;-52
2022/10/24 12:10:50;;;;;;;7.43;1.50;;;20.40;64.30;;;;;;5048003;28;20509;-50
2022/10/24 12:13:37;;;;;;;2.30;1.70;;;20.40;64.20;;;;;;5033326;28;20454;-53
2022/10/24 12:16:18;;;;;;;2.50;1.40;;;20.20;64.60;;;;;;5045583;28;20459;-51
2022/10/24 12:18:47;;;;;;;2.00;1.40;;;20.10;64.90;;;;;;5047059;28;20585;-49
2022/10/24 12:21:21;;;;;;;2.70;1.10;;;20.20;64.80;;;;;;5048149;28;20496;-52
2022/10/24 12:23:58;;;;;;;2.00;1.13;;;20.30;63.90;;;;;;5033992;28;20931;-49
2022/10/24 12:26:29;;;;;;;2.50;1.20;;;20.50;64.30;;;;;;5047801;28;20500;-51
2022/10/24 12:29:03;;;;;;;1.60;1.20;;;20.50;63.30;;;;;;5039279;28;20957;-51
2022/10/24 12:31:37;;;;;;;1.60;1.40;;;20.60;63.00;;;;;;5032158;28;20439;-51
2022/10/24 12:34:14;;;;;;;3.50;1.50;;;20.40;62.90;;;;;;5043637;28;20452;-52
2022/10/24 12:37:19;;;;;;;5.17;1.13;;;20.50;63.30;;;;;;5047111;28;20491;-51
2022/10/24 12:39:49;;;;;;;2.03;1.40;;;20.60;63.30;;;;;;5032917;28;20495;-52
2022/10/24 12:42:18;;;;;;;1.17;1.07;;;20.50;62.50;;;;;;5020823;28;20844;-52
2022/10/24 12:44:45;;;;;;;1.93;1.73;;;20.70;62.60;;;;;;5041941;28;20443;-53
2022/10/24 12:47:32;;;;;;;1.73;1.23;;;20.70;62.10;;;;;;5043148;28;20442;-49
2022/10/24 12:50:21;;;;;;;3.43;1.50;;;20.60;61.90;;;;;;5047347;28;20443;-49
2022/10/24 12:52:46;;;;;;;3.00;1.10;;;20.40;61.80;;;;;;5005130;28;20500;-49
2022/10/24 12:55:50;;;;;;;3.73;1.60;;;20.60;62.50;;;;;;5048073;28;20478;-48
2022/10/24 12:58:35;;;;;;;2.40;1.33;;;20.60;61.90;;;;;;5047075;28;20208;-52
2022/10/24 13:01:03;;;;;;;2.27;0.97;;;20.40;61.90;;;;;;5048948;28;20446;-52
2022/10/24 13:03:46;;;;;;;1.40;1.30;;;20.40;62.10;;;;;;5044125;28;20447;-52
2022/10/24 13:06:29;;;;;;;2.67;1.00;;;20.20;62.50;;;;;;5040698;28;20493;-52
2022/10/24 13:09:11;;;;;;;5.53;1.30;;;20.50;62.10;;;;;;5043230;28;20459;-49